createdAt,value
2019-01-03T00:01:40.929Z,26.87
2019-01-03T00:07:04.938Z,28.27
2019-01-03T00:12:34.117Z,27.17
2019-01-03T00:18:04.109Z,29.90
2019-01-03T00:23:40.404Z,25.30
2019-01-03T00:29:04.847Z,23.73
2019-01-03T00:34:31.955Z,24.73
2019-01-03T00:39:47.402Z,24.07
2019-01-03T00:45:22.608Z,33.33
2019-01-03T00:50:58.880Z,26.47
2019-01-03T00:56:21.762Z,28.37
2019-01-03T01:01:44.495Z,27.53
2019-01-03T01:07:17.830Z,23.60
2019-01-03T01:12:57.202Z,25.03
2019-01-03T01:18:30.182Z,22.60
2019-01-03T01:24:07.451Z,25.50
2019-01-03T01:29:30.760Z,27.77
2019-01-03T01:35:09.818Z,28.00
2019-01-03T01:40:32.622Z,40.43
2019-01-03T01:45:59.783Z,34.00
2019-01-03T01:51:22.579Z,42.87
2019-01-03T01:56:45.246Z,36.13
2019-01-03T02:02:18.410Z,32.07
2019-01-03T02:07:39.616Z,28.97
2019-01-03T02:13:22.019Z,32.57
2019-01-03T02:18:44.193Z,33.10
2019-01-03T02:24:08.648Z,34.00
2019-01-03T02:29:31.522Z,35.80
2019-01-03T02:34:54.484Z,35.70
2019-01-03T02:40:27.458Z,35.30
2019-01-03T02:45:48.566Z,33.47
2019-01-03T02:51:08.878Z,34.37
2019-01-03T02:56:28.977Z,33.87
2019-01-03T03:02:05.133Z,33.03
2019-01-03T03:07:27.968Z,32.83
2019-01-03T03:12:51.984Z,31.67
2019-01-03T03:18:28.793Z,28.63
2019-01-03T03:23:44.885Z,31.93
2019-01-03T03:29:13.217Z,30.90
2019-01-03T03:34:49.212Z,35.60
2019-01-03T03:40:12.538Z,37.37
2019-01-03T03:45:29.246Z,34.60
2019-01-03T03:50:55.934Z,42.10
2019-01-03T03:56:22.482Z,24.47
2019-01-03T04:01:45.175Z,33.87
2019-01-03T04:07:24.573Z,32.77
2019-01-03T04:13:03.774Z,32.17
2019-01-03T04:18:26.960Z,32.30
2019-01-03T04:24:09.388Z,36.43
2019-01-03T04:29:39.124Z,35.37
2019-01-03T04:34:55.913Z,31.77
2019-01-03T04:40:20.439Z,32.37
2019-01-03T04:45:43.114Z,36.17
2019-01-03T04:51:22.982Z,34.50
2019-01-03T04:57:05.017Z,34.10
2019-01-03T05:02:21.898Z,34.30
2019-01-03T05:07:44.946Z,38.07
2019-01-03T05:13:07.939Z,37.90
2019-01-03T05:18:32.079Z,41.63
2019-01-03T05:24:08.302Z,39.70
2019-01-03T05:29:28.189Z,39.07
2019-01-03T05:34:51.242Z,39.60
2019-01-03T05:40:13.912Z,40.63
2019-01-03T05:45:36.770Z,38.50
2019-01-03T05:51:06.923Z,40.73
2019-01-03T05:56:39.924Z,46.10
2019-01-03T06:02:04.032Z,43.00
2019-01-03T06:07:27.784Z,34.67
2019-01-03T06:12:44.175Z,35.97
2019-01-03T06:18:14.345Z,42.53
2019-01-03T06:23:50.231Z,40.90
2019-01-03T06:29:21.241Z,38.20
2019-01-03T06:34:44.294Z,41.80
2019-01-03T06:40:11.387Z,41.10
2019-01-03T06:45:34.025Z,41.03
2019-01-03T06:51:01.427Z,35.47
2019-01-03T06:56:34.613Z,41.03
2019-01-03T07:02:07.026Z,37.60
2019-01-03T07:07:46.394Z,36.80
2019-01-03T07:13:09.257Z,34.77
2019-01-03T07:18:39.412Z,34.77
2019-01-03T07:24:02.335Z,32.13
2019-01-03T07:29:38.182Z,32.03
2019-01-03T07:35:05.258Z,30.63
2019-01-03T07:40:30.172Z,33.13
2019-01-03T07:45:55.598Z,35.10
2019-01-03T07:51:18.802Z,34.83
2019-01-03T07:56:41.543Z,43.73
2019-01-03T08:02:03.154Z,44.30
2019-01-03T08:07:22.447Z,38.77
2019-01-03T08:12:45.199Z,37.40
2019-01-03T08:18:18.349Z,36.00
2019-01-03T08:23:57.568Z,38.77
2019-01-03T08:29:34.267Z,37.33
2019-01-03T08:35:00.448Z,33.60
2019-01-03T08:40:40.173Z,32.77
2019-01-03T08:46:10.383Z,35.23
2019-01-03T08:51:43.731Z,32.43
2019-01-03T08:57:23.287Z,35.43
2019-01-03T09:02:55.641Z,31.90
2019-01-03T09:08:21.183Z,34.40
2019-01-03T09:13:45.308Z,33.60
2019-01-03T09:19:12.142Z,34.03
2019-01-03T09:24:38.969Z,36.73
2019-01-03T09:30:21.655Z,32.00
2019-01-03T09:36:01.925Z,33.87
2019-01-03T09:41:29.495Z,31.07
2019-01-03T09:46:35.445Z,31.90
2019-01-03T09:51:40.761Z,31.20
2019-01-03T09:56:45.955Z,30.70
2019-01-03T10:01:51.495Z,35.13
2019-01-03T10:06:57.304Z,36.13
2019-01-03T10:12:03.056Z,32.93
2019-01-03T10:17:08.395Z,32.37
2019-01-03T10:22:13.852Z,27.53
2019-01-03T10:27:19.083Z,28.10
2019-01-03T10:32:24.997Z,31.17
2019-01-03T10:37:30.767Z,31.13
2019-01-03T10:42:36.158Z,28.30
2019-01-03T10:47:41.381Z,29.77
2019-01-03T10:52:47.186Z,26.93
2019-01-03T10:57:52.625Z,30.47
2019-01-03T11:02:58.117Z,27.30
2019-01-03T11:08:03.540Z,31.87
2019-01-03T11:13:09.991Z,33.07
2019-01-03T11:18:15.572Z,24.57
2019-01-03T11:23:26.477Z,22.60
2019-01-03T11:28:32.797Z,22.13
2019-01-03T11:33:44.155Z,24.73
2019-01-03T11:38:50.774Z,23.50
2019-01-03T11:44:07.967Z,27.67
2019-01-03T11:49:14.162Z,24.20
2019-01-03T11:54:22.005Z,28.43
2019-01-03T11:59:27.803Z,24.30
2019-01-03T12:04:34.381Z,27.70
2019-01-03T12:09:40.109Z,25.87
2019-01-03T12:14:45.443Z,31.90
2019-01-03T12:20:02.447Z,31.50
2019-01-03T12:25:08.137Z,28.87
2019-01-03T12:30:13.467Z,29.17
2019-01-03T12:35:18.678Z,27.27
2019-01-03T12:40:24.133Z,31.10
2019-01-03T12:45:29.547Z,30.07
2019-01-03T12:50:35.271Z,27.53
2019-01-03T12:55:40.555Z,32.93
2019-01-03T13:00:46.144Z,32.93
2019-01-03T13:05:51.606Z,29.93
2019-01-03T13:10:56.810Z,30.10
2019-01-03T13:16:02.047Z,27.50
2019-01-03T13:21:12.967Z,30.80
2019-01-03T13:26:18.107Z,28.57
2019-01-03T13:31:26.909Z,31.43
2019-01-03T13:36:35.255Z,32.43
2019-01-03T13:41:45.791Z,33.23
2019-01-03T13:46:51.089Z,33.80
2019-01-03T13:51:57.298Z,33.17
2019-01-03T13:57:03.967Z,34.30
2019-01-03T14:02:14.416Z,36.40
2019-01-03T14:07:20.116Z,35.13
2019-01-03T14:12:25.145Z,32.70
2019-01-03T14:17:31.867Z,31.57
2019-01-03T14:22:37.756Z,32.23
2019-01-03T14:27:43.257Z,31.10
2019-01-03T14:32:53.535Z,34.33
2019-01-03T14:37:59.976Z,36.70
2019-01-03T14:43:05.819Z,32.13
2019-01-03T14:48:13.386Z,34.33
2019-01-03T14:53:18.631Z,34.77
2019-01-03T14:58:24.203Z,33.53
2019-01-03T15:03:29.418Z,31.30
2019-01-03T15:08:34.653Z,36.10
2019-01-03T15:13:39.977Z,39.07
2019-01-03T15:18:45.806Z,39.40
2019-01-03T15:23:51.053Z,36.80
2019-01-03T15:28:56.153Z,37.17
2019-01-03T15:34:01.417Z,37.37
2019-01-03T15:39:06.871Z,35.10
2019-01-03T15:44:12.047Z,34.70
2019-01-03T15:49:17.268Z,37.10
2019-01-03T15:54:22.759Z,37.50
2019-01-03T15:59:27.912Z,41.27
2019-01-03T16:04:33.105Z,37.50
2019-01-03T16:09:39.667Z,39.77
2019-01-03T16:14:45.509Z,36.10
2019-01-03T16:19:50.677Z,36.40
2019-01-03T16:24:55.759Z,36.13
2019-01-03T16:30:00.938Z,37.07
2019-01-03T16:35:06.803Z,37.30
2019-01-03T16:40:13.412Z,40.33
2019-01-03T16:45:19.189Z,36.97
2019-01-03T16:50:24.588Z,39.80
2019-01-03T16:55:30.895Z,37.57
2019-01-03T17:00:36.333Z,36.07
2019-01-03T17:05:41.893Z,37.53
2019-01-03T17:10:47.198Z,35.40
2019-01-03T17:15:52.460Z,39.00
2019-01-03T17:21:00.477Z,33.07
2019-01-03T17:26:09.359Z,35.07
2019-01-03T17:31:14.932Z,34.23
2019-01-03T17:36:20.687Z,34.53
2019-01-03T17:41:28.137Z,36.20
2019-01-03T17:46:35.831Z,34.13
2019-01-03T17:51:43.163Z,33.90
2019-01-03T17:56:48.573Z,32.50
2019-01-03T18:01:54.726Z,36.80
2019-01-03T18:07:01.752Z,36.77
2019-01-03T18:12:07.079Z,38.50
2019-01-03T18:17:12.797Z,40.37
2019-01-03T18:22:18.757Z,39.07
2019-01-03T18:27:26.191Z,41.00
2019-01-03T18:32:32.352Z,42.43
2019-01-03T18:37:38.209Z,39.77
2019-01-03T18:42:45.038Z,38.50
2019-01-03T18:47:50.757Z,41.83
2019-01-03T18:52:56.115Z,35.87
2019-01-03T18:58:02.313Z,38.47
2019-01-03T19:03:08.328Z,38.10
2019-01-03T19:08:13.545Z,38.80
2019-01-03T19:13:18.725Z,36.33
2019-01-03T19:18:26.290Z,36.50
2019-01-03T19:23:33.157Z,39.13
2019-01-03T19:28:39.386Z,40.83
2019-01-03T19:33:48.739Z,39.93
2019-01-03T19:38:59.075Z,42.63
2019-01-03T19:44:09.598Z,38.27
2019-01-03T19:49:14.868Z,40.37
2019-01-03T19:54:21.745Z,37.90
2019-01-03T19:59:29.412Z,38.90
2019-01-03T20:04:36.035Z,38.70
2019-01-03T20:10:34.387Z,38.10
2019-01-03T20:15:43.882Z,40.43
2019-01-03T20:20:53.961Z,37.37
2019-01-03T20:25:59.841Z,36.60
2019-01-03T20:31:10.922Z,38.53
2019-01-03T20:36:19.869Z,40.67
2019-01-03T20:41:29.673Z,41.83
2019-01-03T20:46:39.099Z,39.10
2019-01-03T20:51:44.717Z,41.10
2019-01-03T20:56:52.391Z,41.33
2019-01-03T21:01:59.729Z,42.37
2019-01-03T21:07:05.862Z,43.63
2019-01-03T21:12:11.944Z,44.00
2019-01-03T21:17:17.477Z,39.13
2019-01-03T21:22:23.965Z,41.50
2019-01-03T21:27:30.085Z,40.03
2019-01-03T21:32:45.857Z,44.37
2019-01-03T21:37:55.245Z,42.67
2019-01-03T21:43:03.836Z,45.43
2019-01-03T21:48:08.912Z,47.27
2019-01-03T21:53:17.696Z,42.00
2019-01-03T21:58:23.380Z,45.50
2019-01-03T22:03:39.385Z,42.27
2019-01-03T22:08:48.266Z,41.87
2019-01-03T22:13:54.042Z,41.37
2019-01-03T22:19:01.507Z,44.20
2019-01-03T22:24:10.304Z,44.57
2019-01-03T22:29:16.010Z,40.23
2019-01-03T22:34:21.380Z,41.33
2019-01-03T22:39:27.610Z,38.50
2019-01-03T22:44:33.270Z,46.80
2019-01-03T22:49:40.158Z,39.20
2019-01-03T22:54:45.655Z,38.10
2019-01-03T22:59:52.678Z,39.83
2019-01-03T23:04:58.272Z,31.37
2019-01-03T23:10:03.677Z,36.53
2019-01-03T23:15:10.472Z,31.93
2019-01-03T23:20:16.744Z,29.00
2019-01-03T23:25:21.895Z,32.07
2019-01-03T23:30:27.400Z,35.07
2019-01-03T23:35:33.834Z,28.83
2019-01-03T23:40:39.470Z,32.57
2019-01-03T23:45:44.869Z,32.93
2019-01-03T23:50:50.459Z,33.00
2019-01-03T23:55:59.444Z,34.97
